Time,TemperatureF,DewpointF,PressureIn,WindDirection,WindDirectionDegrees,WindSpeedMPH,WindSpeedGustMPH,Humidity,HourlyPrecipIn,Conditions,Clouds,dailyrainin,SoftwareType,DateUTC
2013-03-25 00:03:00,45.0,22.0,30.02,NW,311,1.0,8.0,40,0.00,,,0.00,,2013-03-25 05:03:00,
2013-03-25 00:12:00,45.0,22.0,30.02,NW,311,1.0,8.0,40,0.00,,,0.00,,2013-03-25 05:12:00,
2013-03-25 00:22:00,44.0,23.0,30.03,North,1,0.0,3.0,43,0.00,,,0.00,,2013-03-25 05:22:00,
2013-03-25 00:32:00,43.0,23.0,30.04,NE,46,1.0,3.0,45,0.00,,,0.00,,2013-03-25 05:32:00,
2013-03-25 00:42:00,43.0,23.0,30.04,NE,46,1.0,3.0,45,0.00,,,0.00,,2013-03-25 05:42:00,
2013-03-25 00:52:00,43.0,24.0,30.05,SSE,163,3.0,7.0,46,0.00,,,0.00,,2013-03-25 05:52:00,
2013-03-25 01:02:00,42.0,23.0,30.04,North,352,0.0,7.0,46,0.00,,,0.00,,2013-03-25 06:02:00,
2013-03-25 01:12:00,42.0,23.0,30.04,North,352,0.0,7.0,46,0.00,,,0.00,,2013-03-25 06:12:00,
2013-03-25 01:22:00,41.0,23.0,30.06,South,171,0.0,3.0,49,0.00,,,0.00,,2013-03-25 06:22:00,
2013-03-25 01:32:00,41.0,23.0,30.05,WNW,298,0.0,5.0,49,0.00,,,0.00,,2013-03-25 06:32:00,
2013-03-25 01:42:00,41.0,23.0,30.05,WNW,298,0.0,5.0,49,0.00,,,0.00,,2013-03-25 06:42:00,
2013-03-25 01:52:00,41.0,24.0,30.06,NNE,20,1.0,6.0,50,0.00,,,0.00,,2013-03-25 06:52:00,
2013-03-25 02:02:00,41.0,24.0,30.07,NE,34,0.0,6.0,50,0.00,,,0.00,,2013-03-25 07:02:00,
2013-03-25 02:12:00,41.0,24.0,30.07,NE,34,0.0,6.0,50,0.00,,,0.00,,2013-03-25 07:12:00,
2013-03-25 02:22:00,40.0,23.0,30.08,SW,235,1.0,7.0,50,0.00,,,0.00,,2013-03-25 07:22:00,
2013-03-25 02:32:00,40.0,23.0,30.08,SW,216,0.0,4.0,51,0.00,,,0.00,,2013-03-25 07:32:00,
2013-03-25 02:42:00,40.0,23.0,30.08,SW,216,0.0,4.0,51,0.00,,,0.00,,2013-03-25 07:42:00,
2013-03-25 02:53:00,39.0,22.0,30.08,WSW,237,0.0,5.0,51,0.00,,,0.00,,2013-03-25 07:53:00,
2013-03-25 03:02:00,39.0,24.0,30.08,NW,309,0.0,3.0,55,0.00,,,0.00,,2013-03-25 08:02:00,
2013-03-25 03:12:00,39.0,24.0,30.08,NW,309,0.0,3.0,55,0.00,,,0.00,,2013-03-25 08:12:00,
2013-03-25 03:22:00,38.0,24.0,30.07,West,276,0.0,3.0,56,0.00,,,0.00,,2013-03-25 08:22:00,
2013-03-25 03:32:00,37.0,24.0,30.07,ENE,78,0.0,3.0,58,0.00,,,0.00,,2013-03-25 08:32:00,
2013-03-25 03:42:00,37.0,24.0,30.07,ENE,78,0.0,3.0,58,0.00,,,0.00,,2013-03-25 08:42:00,
2013-03-25 03:52:00,37.0,24.0,30.07,East,80,0.0,3.0,59,0.00,,,0.00,,2013-03-25 08:52:00,
2013-03-25 04:02:00,36.0,24.0,30.07,East,88,0.0,2.0,61,0.00,,,0.00,,2013-03-25 09:02:00,
2013-03-25 04:22:00,35.0,24.0,30.07,NNE,25,0.0,3.0,64,0.00,,,0.00,,2013-03-25 09:22:00,
2013-03-25 04:32:00,34.0,24.0,30.08,NE,44,0.0,2.0,66,0.00,,,0.00,,2013-03-25 09:32:00,
2013-03-25 04:42:00,34.0,24.0,30.08,NE,44,0.0,2.0,66,0.00,,,0.00,,2013-03-25 09:42:00,
2013-03-25 04:52:00,33.0,22.0,30.07,North,0,0.0,0.0,64,0.00,,,0.00,,2013-03-25 09:52:00,
2013-03-25 05:03:00,33.0,25.0,30.08,NNW,345,0.0,3.0,73,0.00,,,0.00,,2013-03-25 10:03:00,
2013-03-25 05:12:00,33.0,25.0,30.08,NNW,345,0.0,3.0,73,0.00,,,0.00,,2013-03-25 10:12:00,
2013-03-25 05:22:00,32.0,24.0,30.08,North,7,0.0,0.0,72,0.00,,,0.00,,2013-03-25 10:22:00,
2013-03-25 05:32:00,32.0,24.0,30.08,North,9,0.0,0.0,73,0.00,,,0.00,,2013-03-25 10:32:00,
2013-03-25 05:42:00,32.0,24.0,30.08,North,9,0.0,0.0,73,0.00,,,0.00,,2013-03-25 10:42:00,
2013-03-25 05:54:00,32.0,24.0,30.09,ENE,78,0.0,2.0,73,0.00,,,0.00,,2013-03-25 10:54:00,
2013-03-25 06:03:00,32.0,24.0,30.10,North,8,0.0,3.0,73,0.00,,,0.00,,2013-03-25 11:03:00,
2013-03-25 06:12:00,33.0,25.0,30.11,North,8,0.0,4.0,73,0.00,,,0.00,,2013-03-25 11:12:00,
2013-03-25 06:23:00,33.0,25.0,30.11,North,8,0.0,4.0,73,0.00,,,0.00,,2013-03-25 11:23:00,
2013-03-25 06:32:00,33.0,25.0,30.12,NNE,13,0.0,2.0,73,0.00,,,0.00,,2013-03-25 11:32:00,
2013-03-25 06:42:00,33.0,25.0,30.12,NNE,13,0.0,2.0,73,0.00,,,0.00,,2013-03-25 11:42:00,
2013-03-25 06:52:00,33.0,25.0,30.13,NE,53,0.0,3.0,72,0.00,,,0.00,,2013-03-25 11:52:00,
2013-03-25 07:02:00,33.0,25.0,30.14,NE,40,0.0,3.0,72,0.00,,,0.00,,2013-03-25 12:02:00,
2013-03-25 07:12:00,33.0,25.0,30.14,ENE,67,0.0,3.0,73,0.00,,,0.00,,2013-03-25 12:12:00,
2013-03-25 07:23:00,33.0,25.0,30.14,ENE,67,0.0,3.0,73,0.00,,,0.00,,2013-03-25 12:23:00,
2013-03-25 07:32:00,33.0,25.0,30.16,ENE,72,0.0,3.0,73,0.00,,,0.00,,2013-03-25 12:32:00,
2013-03-25 07:42:00,33.0,25.0,30.16,ENE,72,0.0,3.0,73,0.00,,,0.00,,2013-03-25 12:42:00,
2013-03-25 07:53:00,33.0,25.0,30.16,East,87,0.0,2.0,71,0.00,,,0.00,,2013-03-25 12:53:00,
2013-03-25 08:02:00,33.0,25.0,30.16,NNW,343,0.0,2.0,73,0.00,,,0.00,,2013-03-25 13:02:00,
2013-03-25 08:12:00,33.0,25.0,30.16,NNW,343,0.0,2.0,73,0.00,,,0.00,,2013-03-25 13:12:00,
2013-03-25 08:22:00,34.0,25.0,30.16,NW,317,0.0,4.0,70,0.00,,,0.00,,2013-03-25 13:22:00,
2013-03-25 08:32:00,35.0,26.0,30.16,WSW,252,0.0,6.0,68,0.00,,,0.00,,2013-03-25 13:32:00,
2013-03-25 08:42:00,35.0,26.0,30.16,WSW,252,0.0,6.0,68,0.00,,,0.00,,2013-03-25 13:42:00,
2013-03-25 08:52:00,37.0,26.0,30.18,West,280,1.0,6.0,64,0.00,,,0.00,,2013-03-25 13:52:00,
2013-03-25 09:03:00,38.0,26.0,30.18,ENE,70,1.0,7.0,62,0.00,,,0.00,,2013-03-25 14:03:00,
2013-03-25 09:12:00,38.0,26.0,30.18,ENE,70,1.0,7.0,62,0.00,,,0.00,,2013-03-25 14:12:00,
2013-03-25 09:22:00,40.0,25.0,30.19,NW,324,1.0,6.0,55,0.00,,,0.00,,2013-03-25 14:22:00,
2013-03-25 09:32:00,42.0,23.0,30.19,West,281,3.0,9.0,47,0.00,,,0.00,,2013-03-25 14:32:00,
2013-03-25 09:42:00,42.0,23.0,30.19,West,281,3.0,9.0,47,0.00,,,0.00,,2013-03-25 14:42:00,
2013-03-25 09:53:00,44.0,21.0,30.20,West,262,0.0,4.0,40,0.00,,,0.00,,2013-03-25 14:53:00,
2013-03-25 10:02:00,46.0,21.0,30.20,NNE,19,0.0,6.0,36,0.00,,,0.00,,2013-03-25 15:02:00,
2013-03-25 10:12:00,46.0,21.0,30.20,NNE,19,0.0,6.0,36,0.00,,,0.00,,2013-03-25 15:12:00,
2013-03-25 10:22:00,46.0,17.0,30.22,ESE,117,3.0,12.0,31,0.00,,,0.00,,2013-03-25 15:22:00,
2013-03-25 10:32:00,46.0,17.0,30.22,SSW,199,3.0,8.0,31,0.00,,,0.00,,2013-03-25 15:32:00,
2013-03-25 10:42:00,46.0,17.0,30.22,SSW,199,3.0,8.0,31,0.00,,,0.00,,2013-03-25 15:42:00,
2013-03-25 10:53:00,48.0,19.0,30.22,North,3,0.0,7.0,31,0.00,,,0.00,,2013-03-25 15:53:00,
2013-03-25 11:03:00,50.0,21.0,30.23,WNW,292,3.0,6.0,31,0.00,,,0.00,,2013-03-25 16:03:00,
2013-03-25 11:12:00,50.0,21.0,30.23,WNW,292,3.0,6.0,31,0.00,,,0.00,,2013-03-25 16:12:00,
2013-03-25 11:23:00,50.0,21.0,30.23,WNW,292,3.0,6.0,31,0.00,,,0.00,,2013-03-25 16:23:00,
2013-03-25 11:33:00,52.0,22.0,30.23,West,268,0.0,5.0,31,0.00,,,0.00,,2013-03-25 16:33:00,
2013-03-25 11:42:00,52.0,22.0,30.23,West,268,0.0,5.0,31,0.00,,,0.00,,2013-03-25 16:42:00,
2013-03-25 11:53:00,53.0,23.0,30.22,North,6,2.0,7.0,31,0.00,,,0.00,,2013-03-25 16:53:00,
2013-03-25 12:02:00,52.0,22.0,30.22,NW,320,3.0,10.0,31,0.00,,,0.00,,2013-03-25 17:02:00,
2013-03-25 12:12:00,52.0,22.0,30.22,NW,320,3.0,10.0,31,0.00,,,0.00,,2013-03-25 17:12:00,
2013-03-25 12:23:00,53.0,23.0,30.20,ESE,118,1.0,12.0,31,0.00,,,0.00,,2013-03-25 17:23:00,
2013-03-25 12:32:00,54.0,24.0,30.20,NNW,335,2.0,9.0,31,0.00,,,0.00,,2013-03-25 17:32:00,
2013-03-25 12:42:00,54.0,24.0,30.20,NNW,335,2.0,9.0,31,0.00,,,0.00,,2013-03-25 17:42:00,
2013-03-25 12:53:00,54.0,24.0,30.19,WNW,291,1.0,8.0,31,0.00,,,0.00,,2013-03-25 17:53:00,
2013-03-25 13:03:00,56.0,26.0,30.19,East,84,1.0,6.0,31,0.00,,,0.00,,2013-03-25 18:03:00,
2013-03-25 13:12:00,56.0,26.0,30.19,East,84,1.0,6.0,31,0.00,,,0.00,,2013-03-25 18:12:00,
2013-03-25 13:22:00,56.0,26.0,30.19,NNW,337,0.0,10.0,31,0.00,,,0.00,,2013-03-25 18:22:00,
2013-03-25 13:32:00,56.0,26.0,30.18,SSW,200,1.0,8.0,31,0.00,,,0.00,,2013-03-25 18:32:00,
2013-03-25 13:42:00,56.0,26.0,30.18,SSW,200,1.0,8.0,31,0.00,,,0.00,,2013-03-25 18:42:00,
2013-03-25 13:53:00,57.0,27.0,30.17,WSW,248,3.0,12.0,31,0.00,,,0.00,,2013-03-25 18:53:00,
2013-03-25 14:02:00,57.0,27.0,30.17,West,261,1.0,9.0,31,0.00,,,0.00,,2013-03-25 19:02:00,
2013-03-25 14:12:00,57.0,27.0,30.17,West,261,1.0,9.0,31,0.00,,,0.00,,2013-03-25 19:12:00,
2013-03-25 14:22:00,59.0,28.0,30.16,East,86,3.0,9.0,31,0.00,,,0.00,,2013-03-25 19:22:00,
2013-03-25 14:33:00,59.0,28.0,30.16,SSW,207,3.0,6.0,31,0.00,,,0.00,,2013-03-25 19:33:00,
2013-03-25 14:42:00,59.0,28.0,30.16,SSW,207,3.0,6.0,31,0.00,,,0.00,,2013-03-25 19:42:00,
2013-03-25 14:52:00,59.0,28.0,30.14,WSW,239,2.0,8.0,31,0.00,,,0.00,,2013-03-25 19:52:00,
2013-03-25 15:02:00,58.0,28.0,30.13,West,270,2.0,8.0,31,0.00,,,0.00,,2013-03-25 20:02:00,
2013-03-25 15:12:00,58.0,28.0,30.13,West,270,2.0,8.0,31,0.00,,,0.00,,2013-03-25 20:12:00,
2013-03-25 15:22:00,57.0,27.0,30.12,North,350,1.0,11.0,31,0.00,,,0.00,,2013-03-25 20:22:00,
2013-03-25 15:32:00,58.0,28.0,30.12,West,279,2.0,10.0,31,0.00,,,0.00,,2013-03-25 20:32:00,
2013-03-25 15:42:00,58.0,28.0,30.12,West,279,2.0,10.0,31,0.00,,,0.00,,2013-03-25 20:42:00,
2013-03-25 15:52:00,59.0,28.0,30.10,WNW,287,3.0,11.0,31,0.00,,,0.00,,2013-03-25 20:52:00,
2013-03-25 16:02:00,59.0,28.0,30.10,WNW,291,1.0,9.0,31,0.00,,,0.00,,2013-03-25 21:02:00,
2013-03-25 16:12:00,59.0,28.0,30.10,WNW,291,1.0,9.0,31,0.00,,,0.00,,2013-03-25 21:12:00,
2013-03-25 16:22:00,59.0,28.0,30.10,WSW,258,3.0,14.0,31,0.00,,,0.00,,2013-03-25 21:22:00,
2013-03-25 16:33:00,59.0,28.0,30.10,West,272,3.0,9.0,31,0.00,,,0.00,,2013-03-25 21:33:00,
2013-03-25 16:42:00,59.0,28.0,30.10,West,272,3.0,9.0,31,0.00,,,0.00,,2013-03-25 21:42:00,
2013-03-25 16:52:00,60.0,29.0,30.09,SW,232,2.0,7.0,31,0.00,,,0.00,,2013-03-25 21:52:00,
2013-03-25 17:03:00,60.0,29.0,30.09,West,275,1.0,7.0,31,0.00,,,0.00,,2013-03-25 22:03:00,
2013-03-25 17:12:00,60.0,29.0,30.09,West,275,1.0,7.0,31,0.00,,,0.00,,2013-03-25 22:12:00,
2013-03-25 17:23:00,61.0,30.0,30.10,West,272,0.0,7.0,31,0.00,,,0.00,,2013-03-25 22:23:00,
2013-03-25 17:32:00,61.0,30.0,30.10,WNW,284,0.0,6.0,31,0.00,,,0.00,,2013-03-25 22:32:00,
2013-03-25 17:42:00,61.0,30.0,30.10,WNW,284,0.0,6.0,31,0.00,,,0.00,,2013-03-25 22:42:00,
2013-03-25 17:52:00,61.0,30.0,30.10,NW,325,0.0,6.0,31,0.00,,,0.00,,2013-03-25 22:52:00,
2013-03-25 18:02:00,61.0,30.0,30.10,NW,304,1.0,6.0,31,0.00,,,0.00,,2013-03-25 23:02:00,
2013-03-25 18:12:00,61.0,30.0,30.10,NW,304,1.0,6.0,31,0.00,,,0.00,,2013-03-25 23:12:00,
2013-03-25 18:22:00,60.0,29.0,30.11,WNW,284,1.0,4.0,31,0.00,,,0.00,,2013-03-25 23:22:00,
2013-03-25 18:32:00,59.0,28.0,30.11,WSW,241,0.0,5.0,31,0.00,,,0.00,,2013-03-25 23:32:00,
2013-03-25 18:42:00,59.0,28.0,30.11,WSW,241,0.0,5.0,31,0.00,,,0.00,,2013-03-25 23:42:00,
2013-03-25 18:52:00,58.0,28.0,30.10,WNW,282,0.0,5.0,31,0.00,,,0.00,,2013-03-25 23:52:00,
2013-03-25 19:02:00,57.0,27.0,30.11,NW,319,0.0,3.0,31,0.00,,,0.00,,2013-03-26 00:02:00,
2013-03-25 19:12:00,57.0,27.0,30.11,NW,319,0.0,3.0,31,0.00,,,0.00,,2013-03-26 00:12:00,
2013-03-25 19:22:00,53.0,23.0,30.11,NNW,344,0.0,2.0,31,0.00,,,0.00,,2013-03-26 00:22:00,
2013-03-25 19:32:00,52.0,22.0,30.12,North,4,0.0,1.0,31,0.00,,,0.00,,2013-03-26 00:32:00,
2013-03-25 19:42:00,52.0,22.0,30.12,North,4,0.0,1.0,31,0.00,,,0.00,,2013-03-26 00:42:00,
2013-03-25 19:52:00,48.0,19.0,30.13,North,1,0.0,0.0,31,0.00,,,0.00,,2013-03-26 00:52:00,
2013-03-25 20:02:00,47.0,21.0,30.14,North,0,0.0,0.0,35,0.00,,,0.00,,2013-03-26 01:02:00,
2013-03-25 20:12:00,47.0,21.0,30.14,North,0,0.0,0.0,35,0.00,,,0.00,,2013-03-26 01:12:00,
2013-03-25 20:22:00,45.0,16.0,30.15,NNE,31,0.0,1.0,31,0.00,,,0.00,,2013-03-26 01:22:00,
2013-03-25 20:32:00,44.0,16.0,30.16,NE,45,0.0,0.0,32,0.00,,,0.00,,2013-03-26 01:32:00,
2013-03-25 20:42:00,44.0,16.0,30.16,NE,45,0.0,0.0,32,0.00,,,0.00,,2013-03-26 01:42:00,
2013-03-25 20:52:00,42.0,23.0,30.16,East,90,0.0,0.0,46,0.00,,,0.00,,2013-03-26 01:52:00,
2013-03-25 21:12:00,41.0,20.0,30.17,North,0,0.0,0.0,43,0.00,,,0.00,,2013-03-26 02:12:00,
2013-03-25 21:22:00,40.0,16.0,30.19,North,0,0.0,0.0,38,0.00,,,0.00,,2013-03-26 02:22:00,
2013-03-25 21:32:00,39.0,19.0,30.19,NE,45,0.0,0.0,45,0.00,,,0.00,,2013-03-26 02:32:00,
2013-03-25 21:42:00,39.0,19.0,30.19,NE,45,0.0,0.0,45,0.00,,,0.00,,2013-03-26 02:42:00,
2013-03-25 21:52:00,39.0,21.0,30.19,North,1,0.0,0.0,49,0.00,,,0.00,,2013-03-26 02:52:00,
2013-03-25 22:02:00,38.0,20.0,30.20,North,1,0.0,0.0,47,0.00,,,0.00,,2013-03-26 03:02:00,
2013-03-25 22:12:00,38.0,20.0,30.20,North,1,0.0,0.0,47,0.00,,,0.00,,2013-03-26 03:12:00,
2013-03-25 22:22:00,37.0,21.0,30.22,North,0,0.0,0.0,51,0.00,,,0.00,,2013-03-26 03:22:00,
2013-03-25 22:33:00,37.0,24.0,30.23,NW,314,0.0,0.0,58,0.00,,,0.00,,2013-03-26 03:33:00,
2013-03-25 22:42:00,37.0,24.0,30.23,NW,314,0.0,0.0,58,0.00,,,0.00,,2013-03-26 03:42:00,
2013-03-25 22:53:00,37.0,25.0,30.24,ENE,59,0.0,1.0,61,0.00,,,0.00,,2013-03-26 03:53:00,
2013-03-25 23:03:00,37.0,24.0,30.24,NNE,31,0.0,0.0,59,0.00,,,0.00,,2013-03-26 04:03:00,
2013-03-25 23:12:00,37.0,24.0,30.24,NNE,31,0.0,0.0,59,0.00,,,0.00,,2013-03-26 04:12:00,
2013-03-25 23:23:00,36.0,22.0,30.26,NNE,33,0.0,0.0,57,0.00,,,0.00,,2013-03-26 04:23:00,
2013-03-25 23:32:00,36.0,23.0,30.25,NE,43,0.0,1.0,58,0.00,,,0.00,,2013-03-26 04:32:00,
2013-03-25 23:43:00,36.0,23.0,30.25,NE,43,0.0,1.0,58,0.00,,,0.00,,2013-03-26 04:43:00,
2013-03-25 23:52:00,36.0,23.0,30.26,North,1,0.0,0.0,58,0.00,,,0.00,,2013-03-26 04:52:00,